NOK274Y VTCT-VTBS
Flight info
| Callsign | NOK274Y |
|---|---|
| Flight time | 1h 15m |
| Altitude | 39000 |
| Route | DUBEN1A DUBEN Y28 BLAFF DCT NORTA NORTA1C |
| Aircraft | A20N/M-SDE2E3FGHIRWXY/LB1 |
Departure
| Time | 2026-05-06 06:42 |
|---|---|
| Airport | Mae Fah Luang - Chiang Rai International Airport (VTCT) |
Arrival
| Time | 2026-05-06 07:58 |
|---|---|
| Airport | Suvarnabhumi Airport (VTBS) |
| Time | Latitude | Longitude | Altitude | Speed | Heading |
|---|---|---|---|---|---|
| 2026-05-06 06:23 | 19.95429 | 99.88003 | 1285 ft | 0 kts | 299° |
| 2026-05-06 06:31 | 19.95422 | 99.88018 | 1286 ft | 4 kts | 292° |
| 2026-05-06 06:31 | 19.95414 | 99.88046 | 1287 ft | 4 kts | 273° |
| 2026-05-06 06:31 | 19.95417 | 99.88073 | 1288 ft | 4 kts | 237° |
| 2026-05-06 06:32 | 19.95426 | 99.88084 | 1290 ft | 1 kts | 209° |
| 2026-05-06 06:36 | 19.95425 | 99.88084 | 1286 ft | 1 kts | 209° |
| 2026-05-06 06:36 | 19.95403 | 99.88070 | 1290 ft | 8 kts | 210° |
| 2026-05-06 06:37 | 19.95341 | 99.88032 | 1289 ft | 12 kts | 207° |
| 2026-05-06 06:37 | 19.95266 | 99.88061 | 1288 ft | 14 kts | 120° |
| 2026-05-06 06:37 | 19.95219 | 99.88165 | 1285 ft | 17 kts | 116° |
| 2026-05-06 06:37 | 19.95128 | 99.88230 | 1283 ft | 18 kts | 193° |
| 2026-05-06 06:38 | 19.95007 | 99.88172 | 1286 ft | 19 kts | 220° |
| 2026-05-06 06:38 | 19.94905 | 99.88120 | 1284 ft | 14 kts | 229° |
| 2026-05-06 06:38 | 19.94821 | 99.88057 | 1288 ft | 17 kts | 205° |
| 2026-05-06 06:38 | 19.94761 | 99.88025 | 1285 ft | 19 kts | 209° |
| 2026-05-06 06:39 | 19.94741 | 99.88013 | 1284 ft | 0 kts | 210° |
| 2026-05-06 06:39 | 19.94689 | 99.87982 | 1285 ft | 13 kts | 209° |
| 2026-05-06 06:40 | 19.94599 | 99.87931 | 1289 ft | 16 kts | 208° |
| 2026-05-06 06:40 | 19.94494 | 99.87870 | 1286 ft | 19 kts | 209° |
| 2026-05-06 06:40 | 19.94375 | 99.87801 | 1285 ft | 20 kts | 208° |
| 2026-05-06 06:40 | 19.94248 | 99.87723 | 1287 ft | 22 kts | 210° |
| 2026-05-06 06:41 | 19.94142 | 99.87640 | 1284 ft | 17 kts | 242° |
| 2026-05-06 06:41 | 19.94068 | 99.87590 | 1287 ft | 8 kts | 141° |
| 2026-05-06 06:41 | 19.94095 | 99.87635 | 1286 ft | 9 kts | 21° |
| 2026-05-06 06:41 | 19.94192 | 99.87684 | 1288 ft | 37 kts | 28° |
| 2026-05-06 06:42 | 19.94636 | 99.87946 | 1288 ft | 106 kts | 28° |
| 2026-05-06 06:42 | 19.95451 | 99.88425 | 1284 ft | 158 kts | 29° |
| 2026-05-06 06:42 | 19.96469 | 99.89029 | 1731 ft | 164 kts | 30° |
| 2026-05-06 06:42 | 19.97448 | 99.89614 | 2454 ft | 163 kts | 29° |
| 2026-05-06 06:43 | 19.98476 | 99.90214 | 2959 ft | 175 kts | 29° |
| 2026-05-06 06:43 | 19.99608 | 99.90865 | 3400 ft | 195 kts | 29° |
| 2026-05-06 06:43 | 20.00820 | 99.91569 | 3872 ft | 215 kts | 30° |
| 2026-05-06 06:43 | 20.02214 | 99.92388 | 4351 ft | 240 kts | 29° |
| 2026-05-06 06:44 | 20.03716 | 99.93342 | 4924 ft | 264 kts | 38° |
| 2026-05-06 06:44 | 20.04888 | 99.94921 | 5511 ft | 283 kts | 66° |
| 2026-05-06 06:44 | 20.05264 | 99.96995 | 6304 ft | 291 kts | 93° |
| 2026-05-06 06:44 | 20.04775 | 99.99146 | 6761 ft | 312 kts | 115° |
| 2026-05-06 06:45 | 20.03707 | 100.01277 | 6945 ft | 342 kts | 122° |
| 2026-05-06 06:45 | 20.02394 | 100.03535 | 7002 ft | 374 kts | 123° |
| 2026-05-06 06:45 | 20.00984 | 100.05978 | 6999 ft | 402 kts | 122° |
| 2026-05-06 06:45 | 19.99520 | 100.08616 | 7007 ft | 426 kts | 121° |
| 2026-05-06 06:46 | 19.98058 | 100.11316 | 7053 ft | 412 kts | 121° |
| 2026-05-06 06:46 | 19.96638 | 100.13919 | 6597 ft | 403 kts | 122° |
| 2026-05-06 06:46 | 19.94987 | 100.16251 | 6574 ft | 395 kts | 137° |
| 2026-05-06 06:46 | 19.92760 | 100.17913 | 7168 ft | 385 kts | 155° |
| 2026-05-06 06:47 | 19.90288 | 100.18691 | 8232 ft | 369 kts | 176° |
| 2026-05-06 06:47 | 19.87799 | 100.18616 | 9626 ft | 350 kts | 189° |
| 2026-05-06 06:47 | 19.85420 | 100.18272 | 10806 ft | 343 kts | 189° |
| 2026-05-06 06:47 | 19.83023 | 100.18050 | 11526 ft | 349 kts | 185° |
| 2026-05-06 06:48 | 19.80570 | 100.18024 | 12270 ft | 355 kts | 181° |
| 2026-05-06 06:48 | 19.78082 | 100.18143 | 13022 ft | 360 kts | 179° |
| 2026-05-06 06:48 | 19.75570 | 100.18340 | 13777 ft | 364 kts | 178° |
| 2026-05-06 06:48 | 19.73034 | 100.18567 | 14387 ft | 368 kts | 178° |
| 2026-05-06 06:49 | 19.70466 | 100.18800 | 15011 ft | 372 kts | 178° |
| 2026-05-06 06:49 | 19.67867 | 100.19033 | 15629 ft | 377 kts | 178° |
| 2026-05-06 06:49 | 19.65233 | 100.19269 | 16246 ft | 381 kts | 178° |
| 2026-05-06 06:49 | 19.62576 | 100.19503 | 16849 ft | 385 kts | 178° |
| 2026-05-06 06:50 | 19.59893 | 100.19734 | 17436 ft | 389 kts | 178° |
| 2026-05-06 06:50 | 19.57178 | 100.19967 | 18020 ft | 394 kts | 177° |
| 2026-05-06 06:50 | 19.54433 | 100.20204 | 18545 ft | 397 kts | 177° |
| 2026-05-06 06:50 | 19.51670 | 100.20368 | 19087 ft | 398 kts | 180° |
| 2026-05-06 06:51 | 19.48888 | 100.20445 | 19590 ft | 402 kts | 181° |
| 2026-05-06 06:51 | 19.46085 | 100.20503 | 20093 ft | 404 kts | 181° |
| 2026-05-06 06:51 | 19.43260 | 100.20572 | 20609 ft | 407 kts | 180° |
| 2026-05-06 06:51 | 19.40452 | 100.20653 | 21099 ft | 410 kts | 180° |
| 2026-05-06 06:52 | 19.37552 | 100.20744 | 21590 ft | 414 kts | 180° |
| 2026-05-06 06:52 | 19.34704 | 100.20833 | 22060 ft | 417 kts | 180° |
| 2026-05-06 06:52 | 19.31758 | 100.20927 | 22568 ft | 419 kts | 180° |
| 2026-05-06 06:52 | 19.28866 | 100.21022 | 23033 ft | 423 kts | 180° |
| 2026-05-06 06:53 | 19.25914 | 100.21120 | 23487 ft | 426 kts | 180° |
| 2026-05-06 06:53 | 19.22945 | 100.21218 | 23885 ft | 428 kts | 180° |
| 2026-05-06 06:53 | 19.19958 | 100.21316 | 24274 ft | 430 kts | 180° |
| 2026-05-06 06:53 | 19.16958 | 100.21413 | 24677 ft | 432 kts | 180° |
| 2026-05-06 06:54 | 19.13942 | 100.21511 | 25040 ft | 435 kts | 180° |
| 2026-05-06 06:54 | 19.10911 | 100.21608 | 25400 ft | 437 kts | 180° |
| 2026-05-06 06:54 | 19.07860 | 100.21707 | 25775 ft | 439 kts | 180° |
| 2026-05-06 06:54 | 19.04795 | 100.21805 | 26120 ft | 442 kts | 180° |
| 2026-05-06 06:55 | 19.01713 | 100.21905 | 26468 ft | 444 kts | 180° |
| 2026-05-06 06:55 | 18.98616 | 100.22005 | 26813 ft | 446 kts | 180° |
| 2026-05-06 06:55 | 18.95497 | 100.22105 | 27127 ft | 449 kts | 180° |
| 2026-05-06 06:55 | 18.92364 | 100.22206 | 27466 ft | 451 kts | 180° |
| 2026-05-06 06:56 | 18.89218 | 100.22308 | 27791 ft | 453 kts | 180° |
| 2026-05-06 06:56 | 18.86058 | 100.22409 | 28115 ft | 455 kts | 180° |
| 2026-05-06 06:56 | 18.82927 | 100.22510 | 28422 ft | 458 kts | 180° |
| 2026-05-06 06:56 | 18.79740 | 100.22612 | 28719 ft | 460 kts | 180° |
| 2026-05-06 06:57 | 18.76530 | 100.22716 | 29026 ft | 462 kts | 180° |
| 2026-05-06 06:57 | 18.73318 | 100.22821 | 29316 ft | 464 kts | 180° |
| 2026-05-06 06:57 | 18.70083 | 100.22926 | 29606 ft | 466 kts | 180° |
| 2026-05-06 06:57 | 18.66828 | 100.23032 | 29909 ft | 468 kts | 180° |
| 2026-05-06 06:58 | 18.63559 | 100.23138 | 30182 ft | 470 kts | 180° |
| 2026-05-06 06:58 | 18.60285 | 100.23245 | 30433 ft | 472 kts | 180° |
| 2026-05-06 06:58 | 18.56995 | 100.23352 | 30706 ft | 474 kts | 180° |
| 2026-05-06 06:58 | 18.53693 | 100.23459 | 30970 ft | 475 kts | 180° |
| 2026-05-06 06:59 | 18.50383 | 100.23567 | 31299 ft | 476 kts | 180° |
| 2026-05-06 06:59 | 18.47075 | 100.23674 | 31662 ft | 475 kts | 180° |
| 2026-05-06 06:59 | 18.43774 | 100.23782 | 32027 ft | 474 kts | 180° |
| 2026-05-06 06:59 | 18.40482 | 100.23889 | 32379 ft | 473 kts | 180° |
| 2026-05-06 07:00 | 18.37235 | 100.23994 | 32715 ft | 473 kts | 180° |
| 2026-05-06 07:00 | 18.33941 | 100.24100 | 33040 ft | 472 kts | 180° |
| 2026-05-06 07:00 | 18.30660 | 100.24206 | 33367 ft | 472 kts | 180° |
| 2026-05-06 07:00 | 18.27379 | 100.24313 | 33691 ft | 471 kts | 180° |
| 2026-05-06 07:01 | 18.24103 | 100.24419 | 33976 ft | 471 kts | 180° |
| 2026-05-06 07:01 | 18.20835 | 100.24525 | 34254 ft | 470 kts | 180° |
| 2026-05-06 07:01 | 18.17568 | 100.24631 | 34519 ft | 469 kts | 180° |
| 2026-05-06 07:01 | 18.14306 | 100.24736 | 34770 ft | 469 kts | 180° |
| 2026-05-06 07:02 | 18.11038 | 100.24841 | 35047 ft | 468 kts | 180° |
| 2026-05-06 07:02 | 18.07785 | 100.24946 | 35290 ft | 468 kts | 180° |
| 2026-05-06 07:02 | 18.04536 | 100.25051 | 35552 ft | 467 kts | 180° |
| 2026-05-06 07:02 | 18.01286 | 100.25156 | 35815 ft | 467 kts | 180° |
| 2026-05-06 07:03 | 17.98040 | 100.25261 | 36062 ft | 467 kts | 180° |
| 2026-05-06 07:03 | 17.94794 | 100.25365 | 36306 ft | 466 kts | 180° |
| 2026-05-06 07:03 | 17.91555 | 100.25469 | 36536 ft | 466 kts | 180° |
| 2026-05-06 07:03 | 17.88316 | 100.25574 | 36775 ft | 465 kts | 180° |
| 2026-05-06 07:04 | 17.85080 | 100.25678 | 37007 ft | 465 kts | 180° |
| 2026-05-06 07:04 | 17.81845 | 100.25782 | 37225 ft | 465 kts | 180° |
| 2026-05-06 07:04 | 17.78615 | 100.25886 | 37454 ft | 464 kts | 180° |
| 2026-05-06 07:04 | 17.75390 | 100.25990 | 37634 ft | 464 kts | 180° |
| 2026-05-06 07:05 | 17.72167 | 100.26093 | 37820 ft | 464 kts | 180° |
| 2026-05-06 07:05 | 17.68933 | 100.26197 | 38036 ft | 464 kts | 180° |
| 2026-05-06 07:05 | 17.65704 | 100.26301 | 38229 ft | 464 kts | 180° |
| 2026-05-06 07:05 | 17.62480 | 100.26405 | 38423 ft | 463 kts | 180° |
| 2026-05-06 07:06 | 17.59260 | 100.26508 | 38601 ft | 463 kts | 180° |
| 2026-05-06 07:06 | 17.56042 | 100.26611 | 38755 ft | 462 kts | 180° |
| 2026-05-06 07:06 | 17.52828 | 100.26714 | 38854 ft | 463 kts | 180° |
| 2026-05-06 07:07 | 17.46340 | 100.26921 | 38862 ft | 470 kts | 180° |
| 2026-05-06 07:07 | 17.39787 | 100.27131 | 38864 ft | 476 kts | 180° |
| 2026-05-06 07:08 | 17.33125 | 100.27345 | 38858 ft | 481 kts | 180° |
| 2026-05-06 07:08 | 17.26408 | 100.27560 | 38861 ft | 484 kts | 180° |
| 2026-05-06 07:09 | 17.19661 | 100.27777 | 38861 ft | 486 kts | 180° |
| 2026-05-06 07:09 | 17.12885 | 100.27993 | 38860 ft | 488 kts | 179° |
| 2026-05-06 07:10 | 17.06083 | 100.28210 | 38859 ft | 489 kts | 179° |
| 2026-05-06 07:10 | 16.99280 | 100.28428 | 38845 ft | 490 kts | 179° |
| 2026-05-06 07:11 | 16.92456 | 100.28646 | 38833 ft | 490 kts | 179° |
| 2026-05-06 07:11 | 16.85671 | 100.28862 | 38828 ft | 491 kts | 179° |
| 2026-05-06 07:12 | 16.78834 | 100.29080 | 38828 ft | 491 kts | 179° |
| 2026-05-06 07:12 | 16.72004 | 100.29213 | 38827 ft | 491 kts | 181° |
| 2026-05-06 07:13 | 16.65164 | 100.29205 | 38831 ft | 491 kts | 181° |
| 2026-05-06 07:13 | 16.58331 | 100.29214 | 38836 ft | 491 kts | 181° |
| 2026-05-06 07:14 | 16.51497 | 100.29238 | 38836 ft | 491 kts | 181° |
| 2026-05-06 07:14 | 16.44670 | 100.29266 | 38841 ft | 491 kts | 181° |
| 2026-05-06 07:15 | 16.37838 | 100.29293 | 38839 ft | 490 kts | 181° |
| 2026-05-06 07:15 | 16.31023 | 100.29320 | 38839 ft | 490 kts | 181° |
| 2026-05-06 07:16 | 16.24200 | 100.29347 | 38834 ft | 490 kts | 181° |
| 2026-05-06 07:16 | 16.17382 | 100.29376 | 38835 ft | 489 kts | 181° |
| 2026-05-06 07:17 | 16.10572 | 100.29405 | 38836 ft | 489 kts | 181° |
| 2026-05-06 07:17 | 16.03770 | 100.29434 | 38834 ft | 489 kts | 181° |
| 2026-05-06 07:18 | 15.96978 | 100.29462 | 38834 ft | 488 kts | 181° |
| 2026-05-06 07:18 | 15.91327 | 100.29486 | 38835 ft | 488 kts | 181° |
| 2026-05-06 07:19 | 15.84538 | 100.29514 | 38827 ft | 488 kts | 181° |
| 2026-05-06 07:19 | 15.76649 | 100.29547 | 38828 ft | 487 kts | 181° |
| 2026-05-06 07:20 | 15.70969 | 100.29571 | 38830 ft | 487 kts | 180° |
| 2026-05-06 07:20 | 15.64194 | 100.29599 | 38829 ft | 486 kts | 181° |
| 2026-05-06 07:21 | 15.57423 | 100.29628 | 38825 ft | 486 kts | 181° |
| 2026-05-06 07:21 | 15.50696 | 100.29655 | 38825 ft | 486 kts | 181° |
| 2026-05-06 07:22 | 15.43938 | 100.29684 | 38826 ft | 486 kts | 181° |
| 2026-05-06 07:22 | 15.37167 | 100.29712 | 38823 ft | 485 kts | 180° |
| 2026-05-06 07:23 | 15.30410 | 100.29907 | 38827 ft | 486 kts | 172° |
| 2026-05-06 07:23 | 15.24019 | 100.31972 | 38822 ft | 487 kts | 153° |
| 2026-05-06 07:24 | 15.18170 | 100.35536 | 38821 ft | 487 kts | 149° |
| 2026-05-06 07:24 | 15.12341 | 100.39118 | 38821 ft | 487 kts | 150° |
| 2026-05-06 07:25 | 15.06502 | 100.42699 | 38823 ft | 487 kts | 150° |
| 2026-05-06 07:25 | 15.00666 | 100.46277 | 38811 ft | 488 kts | 150° |
| 2026-05-06 07:26 | 14.94819 | 100.49860 | 38752 ft | 489 kts | 150° |
| 2026-05-06 07:26 | 14.88962 | 100.53447 | 38697 ft | 490 kts | 150° |
| 2026-05-06 07:27 | 14.83371 | 100.57388 | 38643 ft | 490 kts | 147° |
| 2026-05-06 07:27 | 14.78302 | 100.62034 | 38577 ft | 489 kts | 127° |
| 2026-05-06 07:27 | 14.76535 | 100.65007 | 38605 ft | 481 kts | 115° |
| 2026-05-06 07:28 | 14.75391 | 100.68225 | 38467 ft | 476 kts | 103° |
| 2026-05-06 07:28 | 14.74888 | 100.71607 | 38036 ft | 478 kts | 92° |
| 2026-05-06 07:28 | 14.75878 | 100.78419 | 37051 ft | 483 kts | 71° |
| 2026-05-06 07:29 | 14.76920 | 100.81732 | 36677 ft | 484 kts | 71° |
| 2026-05-06 07:29 | 14.77969 | 100.85037 | 36320 ft | 485 kts | 71° |
| 2026-05-06 07:29 | 14.79018 | 100.88350 | 35978 ft | 486 kts | 71° |
| 2026-05-06 07:29 | 14.80069 | 100.91674 | 35620 ft | 486 kts | 71° |
| 2026-05-06 07:30 | 14.81121 | 100.94999 | 35264 ft | 487 kts | 71° |
| 2026-05-06 07:30 | 14.82175 | 100.98328 | 34899 ft | 488 kts | 71° |
| 2026-05-06 07:30 | 14.83232 | 101.01665 | 34519 ft | 489 kts | 71° |
| 2026-05-06 07:30 | 14.84293 | 101.05009 | 34161 ft | 490 kts | 71° |
| 2026-05-06 07:31 | 14.85356 | 101.08356 | 33788 ft | 491 kts | 71° |
| 2026-05-06 07:31 | 14.86468 | 101.11639 | 33364 ft | 488 kts | 66° |
| 2026-05-06 07:31 | 14.88053 | 101.14671 | 32680 ft | 475 kts | 54° |
| 2026-05-06 07:31 | 14.90140 | 101.17276 | 31796 ft | 468 kts | 44° |
| 2026-05-06 07:32 | 14.92567 | 101.19490 | 30829 ft | 464 kts | 34° |
| 2026-05-06 07:32 | 14.95356 | 101.21151 | 29837 ft | 462 kts | 23° |
| 2026-05-06 07:32 | 14.98404 | 101.22175 | 28665 ft | 460 kts | 11° |
| 2026-05-06 07:32 | 15.01576 | 101.22517 | 27540 ft | 458 kts | 359° |
| 2026-05-06 07:33 | 15.04742 | 101.22264 | 26458 ft | 456 kts | 352° |
| 2026-05-06 07:33 | 15.07811 | 101.21527 | 25562 ft | 449 kts | 339° |
| 2026-05-06 07:33 | 15.10575 | 101.20137 | 24945 ft | 436 kts | 326° |
| 2026-05-06 07:33 | 15.12860 | 101.18183 | 24593 ft | 417 kts | 312° |
| 2026-05-06 07:34 | 15.14502 | 101.15808 | 24361 ft | 396 kts | 297° |
| 2026-05-06 07:34 | 15.15521 | 101.13230 | 24134 ft | 378 kts | 287° |
| 2026-05-06 07:34 | 15.16114 | 101.10646 | 23912 ft | 361 kts | 279° |
| 2026-05-06 07:34 | 15.16354 | 101.08118 | 23690 ft | 345 kts | 271° |
| 2026-05-06 07:35 | 15.16259 | 101.05685 | 23466 ft | 331 kts | 263° |
| 2026-05-06 07:35 | 15.15855 | 101.03425 | 23216 ft | 317 kts | 255° |
| 2026-05-06 07:35 | 15.15160 | 101.01300 | 22946 ft | 304 kts | 247° |
| 2026-05-06 07:35 | 15.14220 | 100.99367 | 22486 ft | 299 kts | 239° |
| 2026-05-06 07:36 | 15.13034 | 100.97607 | 21935 ft | 297 kts | 231° |
| 2026-05-06 07:36 | 15.11593 | 100.96028 | 21542 ft | 308 kts | 222° |
| 2026-05-06 07:36 | 15.09923 | 100.94635 | 21297 ft | 309 kts | 218° |
| 2026-05-06 07:36 | 15.08220 | 100.93278 | 21052 ft | 308 kts | 218° |
| 2026-05-06 07:37 | 15.06526 | 100.91911 | 20825 ft | 311 kts | 219° |
| 2026-05-06 07:37 | 15.04812 | 100.90512 | 20590 ft | 317 kts | 219° |
| 2026-05-06 07:37 | 15.03060 | 100.89082 | 20350 ft | 322 kts | 219° |
| 2026-05-06 07:37 | 15.01292 | 100.87643 | 20119 ft | 324 kts | 219° |
| 2026-05-06 07:38 | 14.99510 | 100.86198 | 19898 ft | 327 kts | 219° |
| 2026-05-06 07:38 | 14.97718 | 100.84748 | 19668 ft | 329 kts | 219° |
| 2026-05-06 07:38 | 14.95908 | 100.83285 | 19434 ft | 331 kts | 219° |
| 2026-05-06 07:38 | 14.94086 | 100.81814 | 19209 ft | 333 kts | 219° |
| 2026-05-06 07:39 | 14.92277 | 100.80354 | 18990 ft | 335 kts | 219° |
| 2026-05-06 07:39 | 14.90435 | 100.78868 | 18768 ft | 337 kts | 219° |
| 2026-05-06 07:39 | 14.88583 | 100.77373 | 18548 ft | 338 kts | 219° |
| 2026-05-06 07:39 | 14.86721 | 100.75871 | 18331 ft | 340 kts | 219° |
| 2026-05-06 07:40 | 14.84852 | 100.74363 | 18110 ft | 342 kts | 219° |
| 2026-05-06 07:40 | 14.82972 | 100.72847 | 17862 ft | 343 kts | 219° |
| 2026-05-06 07:40 | 14.81097 | 100.71334 | 17805 ft | 339 kts | 218° |
| 2026-05-06 07:40 | 14.79257 | 100.69851 | 17771 ft | 334 kts | 218° |
| 2026-05-06 07:41 | 14.77420 | 100.68373 | 17587 ft | 334 kts | 218° |
| 2026-05-06 07:41 | 14.75599 | 100.66907 | 17544 ft | 329 kts | 218° |
| 2026-05-06 07:41 | 14.73798 | 100.65464 | 17500 ft | 325 kts | 216° |
| 2026-05-06 07:41 | 14.71779 | 100.64490 | 17442 ft | 320 kts | 192° |
| 2026-05-06 07:42 | 14.69587 | 100.64417 | 17398 ft | 315 kts | 168° |
| 2026-05-06 07:42 | 14.67514 | 100.64984 | 17359 ft | 310 kts | 162° |
| 2026-05-06 07:42 | 14.65431 | 100.65517 | 17211 ft | 310 kts | 171° |
| 2026-05-06 07:42 | 14.63286 | 100.65832 | 16981 ft | 313 kts | 172° |
| 2026-05-06 07:43 | 14.61119 | 100.66124 | 16770 ft | 316 kts | 172° |
| 2026-05-06 07:43 | 14.58928 | 100.66421 | 16607 ft | 318 kts | 172° |
| 2026-05-06 07:43 | 14.56727 | 100.66724 | 16439 ft | 320 kts | 172° |
| 2026-05-06 07:43 | 14.54512 | 100.67034 | 16267 ft | 322 kts | 172° |
| 2026-05-06 07:44 | 14.52279 | 100.67348 | 16084 ft | 325 kts | 172° |
| 2026-05-06 07:44 | 14.50017 | 100.67666 | 15626 ft | 331 kts | 172° |
| 2026-05-06 07:44 | 14.47708 | 100.67991 | 15089 ft | 338 kts | 172° |
| 2026-05-06 07:44 | 14.45356 | 100.68321 | 14557 ft | 345 kts | 172° |
| 2026-05-06 07:45 | 14.42959 | 100.68659 | 14035 ft | 350 kts | 172° |
| 2026-05-06 07:45 | 14.40534 | 100.69000 | 13513 ft | 354 kts | 172° |
| 2026-05-06 07:45 | 14.38075 | 100.69345 | 12928 ft | 358 kts | 172° |
| 2026-05-06 07:45 | 14.35601 | 100.69693 | 12365 ft | 361 kts | 172° |
| 2026-05-06 07:46 | 14.33102 | 100.70044 | 11797 ft | 363 kts | 172° |
| 2026-05-06 07:46 | 14.30600 | 100.70396 | 11251 ft | 364 kts | 172° |
| 2026-05-06 07:46 | 14.28070 | 100.70751 | 10717 ft | 367 kts | 172° |
| 2026-05-06 07:46 | 14.25510 | 100.71111 | 10236 ft | 372 kts | 172° |
| 2026-05-06 07:47 | 14.23027 | 100.71457 | 10072 ft | 356 kts | 172° |
| 2026-05-06 07:47 | 14.20627 | 100.71792 | 9897 ft | 337 kts | 172° |
| 2026-05-06 07:47 | 14.18372 | 100.72106 | 9715 ft | 317 kts | 172° |
| 2026-05-06 07:47 | 14.16249 | 100.72404 | 9454 ft | 301 kts | 172° |
| 2026-05-06 07:48 | 14.14289 | 100.72679 | 8952 ft | 297 kts | 172° |
| 2026-05-06 07:48 | 14.12251 | 100.72967 | 8384 ft | 294 kts | 171° |
| 2026-05-06 07:48 | 14.10231 | 100.73251 | 7842 ft | 291 kts | 171° |
| 2026-05-06 07:48 | 14.08233 | 100.73531 | 7308 ft | 288 kts | 171° |
| 2026-05-06 07:49 | 14.06280 | 100.73895 | 6919 ft | 278 kts | 159° |
| 2026-05-06 07:49 | 14.04723 | 100.74907 | 6769 ft | 258 kts | 131° |
| 2026-05-06 07:49 | 14.03831 | 100.76441 | 6636 ft | 245 kts | 107° |
| 2026-05-06 07:49 | 14.03401 | 100.78093 | 6575 ft | 234 kts | 105° |
| 2026-05-06 07:50 | 14.02988 | 100.79654 | 6500 ft | 223 kts | 110° |
| 2026-05-06 07:50 | 14.02186 | 100.80951 | 6404 ft | 211 kts | 139° |
| 2026-05-06 07:50 | 14.00917 | 100.81639 | 6206 ft | 207 kts | 168° |
| 2026-05-06 07:50 | 13.99481 | 100.81590 | 5912 ft | 210 kts | 194° |
| 2026-05-06 07:51 | 13.98069 | 100.81195 | 5671 ft | 210 kts | 194° |
| 2026-05-06 07:51 | 13.96666 | 100.80808 | 5421 ft | 210 kts | 195° |
| 2026-05-06 07:51 | 13.95286 | 100.80416 | 5304 ft | 198 kts | 193° |
| 2026-05-06 07:51 | 13.93975 | 100.80102 | 5131 ft | 190 kts | 191° |
| 2026-05-06 07:52 | 13.92705 | 100.79822 | 4935 ft | 183 kts | 192° |
| 2026-05-06 07:52 | 13.91481 | 100.79542 | 4748 ft | 178 kts | 191° |
| 2026-05-06 07:52 | 13.90301 | 100.79275 | 4633 ft | 168 kts | 191° |
| 2026-05-06 07:52 | 13.89199 | 100.79022 | 4525 ft | 157 kts | 192° |
| 2026-05-06 07:53 | 13.88175 | 100.78779 | 4483 ft | 147 kts | 192° |
| 2026-05-06 07:53 | 13.87173 | 100.78514 | 4367 ft | 149 kts | 194° |
| 2026-05-06 07:53 | 13.86177 | 100.78221 | 4211 ft | 149 kts | 195° |
| 2026-05-06 07:53 | 13.85175 | 100.77916 | 4016 ft | 152 kts | 195° |
| 2026-05-06 07:54 | 13.84157 | 100.77605 | 3670 ft | 151 kts | 197° |
| 2026-05-06 07:54 | 13.83168 | 100.77305 | 3346 ft | 149 kts | 196° |
| 2026-05-06 07:54 | 13.82194 | 100.76990 | 3073 ft | 143 kts | 197° |
| 2026-05-06 07:54 | 13.81262 | 100.76713 | 2822 ft | 137 kts | 196° |
| 2026-05-06 07:55 | 13.80348 | 100.76456 | 2556 ft | 135 kts | 195° |
| 2026-05-06 07:55 | 13.79439 | 100.76233 | 2267 ft | 136 kts | 193° |
| 2026-05-06 07:55 | 13.78513 | 100.76021 | 1990 ft | 135 kts | 193° |
| 2026-05-06 07:55 | 13.77605 | 100.75806 | 1747 ft | 133 kts | 193° |
| 2026-05-06 07:56 | 13.76707 | 100.75583 | 1475 ft | 130 kts | 194° |
| 2026-05-06 07:56 | 13.75856 | 100.75364 | 1404 ft | 125 kts | 194° |
| 2026-05-06 07:56 | 13.75075 | 100.75162 | 1259 ft | 130 kts | 194° |
| 2026-05-06 07:56 | 13.74132 | 100.74936 | 1061 ft | 135 kts | 194° |
| 2026-05-06 07:57 | 13.73201 | 100.74693 | 824 ft | 139 kts | 195° |
| 2026-05-06 07:57 | 13.72256 | 100.74447 | 533 ft | 140 kts | 196° |
| 2026-05-06 07:57 | 13.71338 | 100.74207 | 304 ft | 132 kts | 197° |
| 2026-05-06 07:57 | 13.70486 | 100.73980 | 147 ft | 120 kts | 198° |
| 2026-05-06 07:58 | 13.69694 | 100.73766 | 14 ft | 116 kts | 195° |
| 2026-05-06 07:58 | 13.69086 | 100.73605 | 12 ft | 61 kts | 197° |
| 2026-05-06 07:58 | 13.68863 | 100.73543 | 13 ft | 11 kts | 194° |
| 2026-05-06 07:58 | 13.68755 | 100.73514 | 12 ft | 21 kts | 195° |
| 2026-05-06 07:59 | 13.68606 | 100.73473 | 12 ft | 23 kts | 195° |
| 2026-05-06 07:59 | 13.68441 | 100.73443 | 12 ft | 25 kts | 181° |
| 2026-05-06 07:59 | 13.68273 | 100.73483 | 13 ft | 20 kts | 160° |
| 2026-05-06 07:59 | 13.68236 | 100.73555 | 14 ft | 14 kts | 51° |
| 2026-05-06 08:00 | 13.68332 | 100.73591 | 13 ft | 16 kts | 16° |
| 2026-05-06 08:00 | 13.68453 | 100.73624 | 14 ft | 20 kts | 15° |
| 2026-05-06 08:00 | 13.68596 | 100.73662 | 13 ft | 23 kts | 14° |
| 2026-05-06 08:00 | 13.68735 | 100.73700 | 13 ft | 17 kts | 18° |
| 2026-05-06 08:01 | 13.68780 | 100.73800 | 13 ft | 18 kts | 103° |
| 2026-05-06 08:01 | 13.68747 | 100.73934 | 14 ft | 21 kts | 104° |
| 2026-05-06 08:01 | 13.68708 | 100.74088 | 13 ft | 24 kts | 105° |
| 2026-05-06 08:01 | 13.68666 | 100.74259 | 13 ft | 19 kts | 107° |
| 2026-05-06 08:02 | 13.68687 | 100.74363 | 13 ft | 17 kts | 30° |
| 2026-05-06 08:02 | 13.68812 | 100.74401 | 13 ft | 14 kts | 16° |
| 2026-05-06 08:02 | 13.68877 | 100.74448 | 13 ft | 13 kts | 90° |
| 2026-05-06 08:02 | 13.68857 | 100.74517 | 13 ft | 1 kts | 108° |
| 2026-05-06 08:03 | 13.68857 | 100.74518 | 13 ft | 0 kts | 108° |